CDT,Max TemperatureF,Mean TemperatureF,Min TemperatureF,Max Dew PointF,MeanDew PointF,Min DewpointF,Max Humidity, Mean Humidity, Min Humidity, Max Sea Level PressureIn, Mean Sea Level PressureIn, Min Sea Level PressureIn, Max VisibilityMiles, Mean VisibilityMiles, Min VisibilityMiles, Max Wind SpeedMPH, Mean Wind SpeedMPH, Max Gust SpeedMPH,PrecipitationIn, CloudCover, Events, WindDirDegrees
2012-10-1,75,65,55,55,50,42,93,62,37,29.83,29.79,29.74,10,10,10,15,4,28,0.00,0,,358
2012-10-2,73,60,46,51,48,45,97,72,37,29.95,29.90,29.83,10,10,10,12,2,,0.00,0,,296
2012-10-3,77,60,45,53,49,43,97,72,37,30.06,30.00,29.95,10,10,10,13,3,31,0.00,1,,196
2012-10-4,82,67,53,60,55,51,93,66,39,30.18,30.12,30.05,10,10,10,16,5,22,0.00,1,,183
2012-10-5,69,54,41,58,50,38,100,86,68,30.24,30.12,30.06,10,8,2,10,4,17,0.34,7,Rain-Thunderstorm,6
2012-10-6,48,44,37,38,35,33,96,77,54,30.31,30.27,30.22,10,10,8,9,4,,0.02,5,Rain,25
2012-10-7,54,42,33,38,34,30,97,72,43,30.33,30.28,30.20,10,10,6,13,2,,0.00,4,,249
2012-10-8,59,45,33,40,36,33,100,83,44,30.26,30.19,30.09,10,7,0,10,2,,0.00,1,Fog,187
2012-10-9,64,48,33,54,45,33,100,80,55,30.09,30.02,29.92,10,10,6,17,4,24,0.00,4,,202
2012-10-10,66,55,44,54,43,32,100,69,32,30.28,30.17,30.09,10,8,3,8,2,18,0.00,4,,73
2012-10-11,73,64,55,63,52,37,96,69,42,30.19,30.14,30.07,10,10,8,12,6,,0.02,6,Rain,185
2012-10-12,70,64,59,64,61,58,100,90,73,30.28,30.18,30.11,10,8,3,14,4,22,0.72,4,Rain-Thunderstorm,143
2012-10-13,77,68,60,66,64,60,100,88,67,30.10,29.92,29.77,10,7,1,24,11,32,0.73,6,Rain-Thunderstorm,180
2012-10-14,72,60,48,63,55,46,100,77,44,30.08,29.90,29.72,10,10,10,15,11,26,0.06,1,Rain,238
2012-10-15,78,60,44,52,48,44,100,70,35,30.09,30.01,29.94,10,10,9,14,5,20,0.00,0,,207
2012-10-16,77,64,53,50,44,38,77,50,25,29.93,29.79,29.66,10,10,10,22,9,34,0.00,0,,194
2012-10-17,71,60,46,64,57,44,100,82,70,29.76,29.58,29.50,10,9,1,18,10,25,0.00,5,Rain-Thunderstorm,210
2012-10-18,64,52,41,44,30,21,100,49,20,29.88,29.82,29.78,10,10,5,20,8,34,0.00,2,,254
2012-10-19,62,51,39,40,32,23,89,48,28,29.89,29.83,29.77,10,9,5,21,11,28,0.00,3,,267
2012-10-20,77,55,35,49,42,34,97,65,31,29.92,29.85,29.78,10,10,10,13,3,22,0.00,0,,195
2012-10-21,78,66,55,66,60,48,81,73,66,29.90,29.85,29.81,10,10,8,20,8,31,0.00,3,,179
2012-10-22,75,72,68,66,64,63,84,78,69,29.98,29.92,29.87,10,10,10,22,14,31,0.01,4,Thunderstorm,185
2012-10-23,75,70,66,64,61,59,83,72,60,29.96,29.91,29.87,10,10,10,18,11,29,0.00,4,,186
2012-10-24,80,72,63,63,61,59,93,72,54,29.96,29.90,29.79,10,10,10,22,12,33,0.00,0,,176
2012-10-25,73,58,44,66,56,37,100,84,68,30.17,29.92,29.78,10,9,2,26,13,34,0.10,6,Rain,226
2012-10-26,50,42,37,37,32,29,77,66,50,30.35,30.28,30.16,10,10,10,16,9,23,0.00,4,,3
2012-10-27,52,40,27,30,28,25,96,70,37,30.36,30.28,30.21,10,10,8,12,2,17,0.00,0,,24
2012-10-28,55,39,24,33,28,22,96,73,37,30.32,30.28,30.23,10,10,8,9,2,,0.00,0,,21
2012-10-29,60,42,26,32,28,24,96,69,27,30.35,30.25,30.15,10,10,10,5,0,,0.00,1,,348
2012-10-30,64,46,28,41,34,28,96,70,33,30.14,30.04,29.94,10,10,10,13,2,,0.00,2,,205
2012-10-31,68,50,33,40,37,32,100,70,32,30.06,30.01,29.96,10,10,8,8,1,,0.00,0,,311